x

Buoy F01 - West Penobscot Bay (44033) Wave Buoy

5:04 - Sun 24th Jul 2016 All times are EDT. -4 hours from GMT.

  • Sig Wave height 1.6ft
  • Peak Period 6s
  • Wind
    7mph
  • Sea Temp 57°f
  • Air Temp 64°f
  • Sea Pressure 1011mb
  • Buoy F01 - West Penobscot Bay
  • Buoy F01 - West Penobscot Bay

More Historic Weather Station data

Upgrade to MSW Pro to gain access to the past 30 days of data for over 8000 Wavebouys and Weather Stations around the globe.

Join Pro

Comparision Forecast

View Surf forecast
   
dim. 07/24 5:04 1.6ft 6s 7
mph
1011mb 57f 64f
4:04 1.6ft 8s 9 11 mph 1010.8mb 59f 64f
3:04 1.3ft 8s 9
mph
1010.9mb 57f 64f
2:04 1.3ft 8s 7 9 mph 1010.8mb 57f 63f
1:04 1ft 8s 4 7 mph 1010.8mb 60f 64f
12:04 1.3ft 8s 2 4 mph 1010.8mb 60f 68f
11:04 1.3ft 8s 4
mph
1011mb 61f 67f
10:04 1.3ft 8s 9
mph
1010.9mb 60f 67f
9:04 1.3ft 8s 4 7 mph 1010.5mb 59f 65f
8:04 1.3ft 6s 9
mph
1010.6mb 59f 66f
7:04 1.6ft 6s 7 9 mph 1010.4mb 58f 65f
6:04 2ft 6s 9 11 mph 1009.3mb 57f 65f
5:04 2ft 6s 9
mph
1008.3mb 56f 65f
4:04 2ft 8s 9 11 mph 1008.1mb 56f 64f
3:04 1.3ft 3s 11
mph
1007.6mb 56f 64f
2:04 1.6ft 8s 9 11 mph 1007.3mb 57f 65f
1:04 1.3ft 6s 7 9 mph 1007.6mb 56f 66f
12:04 1.3ft 6s 9
mph
1007.5mb 58f 65f
sam. 07/23 11:04 1.6ft 6s 9 11 mph 1007mb 57f 65f
10:04 1.3ft 6s 9
mph
1006.7mb 57f 65f
9:04 1.3ft 6s 9
mph
1006.1mb 58f 64f
8:04 1.3ft 6s 4 7 mph 1004.8mb 58f 65f
7:04 1.3ft 6s 9 11 mph 1005.1mb 57f 66f
6:04 1.3ft 8s 2 4 mph 1005.1mb 59f 67f
5:04 1.3ft 6s 7 11 mph 1004.6mb 58f 65f
4:04 1.6ft 6s 7 9 mph 1004mb 58f 64f
3:04 2ft 6s 9
mph
1004.3mb 58f 64f
2:04 2ft 6s 9
mph
1004.3mb 58f 63f
1:04 1.6ft 6s 9 11 mph 1004.8mb 58f 63f
12:04 2ft 6s 9 11 mph 1004.9mb 58f 62f
11:04 2.5ft 6s 9 11 mph 1005mb 58f 62f
10:04 2ft 6s 9
mph
1005.1mb 58f 61f
9:04 1.6ft 8s 7 9 mph 1005.3mb 58f 61f
8:04 2ft 6s 2 4 mph 1005.2mb 57f 67f
7:04 2.5ft 8s 7 9 mph 1004.4mb 57f 67f
6:04 2ft 8s 7 9 mph 1003.8mb 57f 62f
5:04 2ft 8s 2 4 mph 1003.4mb 57f 63f
4:04 2.5ft 8s 11
mph
1003.9mb 57f 66f
3:04 2.5ft 6s 20 27 mph 1004.3mb 57f 70f
2:04 2.5ft 6s 4
mph
1003.7mb 57f 64f
1:04 2.5ft 6s 7
mph
1003.6mb 57f 66f
12:04 3.5ft 6s 7 9 mph 1004.1mb 57f 69f
ven. 07/22 11:04 2.5ft 6s 7 9 mph 1004.1mb 57f 62f
10:04 2.5ft 6s 9 11 mph 1003.9mb 57f 62f
9:04 2.5ft 8s 9 11 mph 1003.7mb 57f 63f
8:04 2.5ft 6s 13 16 mph 1003.1mb 56f 64f
7:04 2.5ft 6s 16 18 mph 1003mb 56f 65f
6:04 2.5ft 6s 13 16 mph 1002.9mb 58f 64f
5:04 2.5ft 6s 11 13 mph 1003.1mb 58f 64f
4:04 2.5ft 6s 18 20 mph 1003.4mb 58f 65f
3:04 2.5ft 6s 18 20 mph 1003.8mb 58f 65f
2:04 2.5ft 6s 16 18 mph 1004.2mb 57f 64f
1:04 2.5ft 6s 16 18 mph 1004.6mb 57f 65f
12:04 2ft 6s 18 20 mph 1005.5mb 57f 64f
11:04 2.5ft 6s 20 22 mph 1005.8mb 57f 64f
10:04 2ft 5s 18 20 mph 1006.6mb 58f 64f
9:04 2.5ft 5s 18 20 mph 1007.4mb 59f 64f
8:04 2ft 5s 20 22 mph 1007.8mb 61f 64f
7:04 2ft 5s 18 22 mph 1008.4mb 62f 65f
6:04 2ft 4s 18 22 mph 1008.1mb 62f 65f
5:04 1.3ft 4s 16 18 mph 1008.5mb 59f 64f
4:04 1.3ft 4s 13 16 mph 1008.8mb 60f 64f
3:04 1ft 4s 9 11 mph 1009.4mb 60f 63f
2:04 1ft 4s 9 11 mph 1010mb 60f 62f
1:04 1ft 4s 7 9 mph 1010.8mb 60f 63f
12:04 1ft 8s 7 9 mph 1011.6mb 60f 62f
jeu. 07/21 11:04 1.3ft 3s 9
mph
1012.1mb 60f 63f
10:04 1ft 3s 11 13 mph 1013mb 61f 64f
9:04 1ft 8s 7 9 mph 1013.2mb 63f 64f
8:04 1ft 3s 9
mph
1013.3mb 64f 65f
7:04 1ft 3s 9 13 mph 1014mb 64f 65f
6:04 1ft 3s 11 13 mph 1014.1mb 63f 65f
5:04 1.3ft 6s 16 18 mph 1014.4mb 64f 65f
4:04 1.3ft 3s 13 16 mph 1014.8mb 64f 65f
3:04 1ft 3s 16 20 mph 1014.6mb 63f 65f
2:04 1ft 6s 13 16 mph 1014.8mb 62f 65f
1:04 0.7ft  -  11 13 mph 1015.6mb 65f 66f
12:04 1ft 6s 11
mph
1016.6mb 64f 65f
11:04 1ft 8s 9 11 mph 1017.1mb 63f 65f
10:04 0.7ft  -  7
mph
1017.6mb 64f 65f
9:04 1ft 8s 7 9 mph 1017.5mb 61f 64f
8:04 1ft 5s 9 11 mph 1018mb 61f 64f
7:04 1ft 5s 9 11 mph 1017.9mb 63f 64f
6:04 1ft 5s 9 11 mph 1017.5mb 63f 63f
5:04 0.7ft  -  7
mph
1016.8mb 63f 64f
4:04 1ft 6s 7 9 mph 1016.5mb 61f 64f
3:04 1ft 6s 7 9 mph 1017mb 63f 64f
2:04 1ft 6s 9
mph
1017.2mb 63f 64f
1:04 1ft 6s 7
mph
1017.3mb 60f 64f
12:04 1ft 8s 4 7 mph 1017mb 62f 65f
mer. 07/20 11:04 1ft 4s 7
mph
1016.8mb 62f 65f